Flugplatz Neuburg-Egweil

Für EDNJ sind keine METAR/TAF Berichte vorhanden.
Es werden die Flugwettermeldungen vom Flugplatz Neuburg Airport in 7 km Entfernung angezeigt.

Bericht für ETSN

vom 04.03. um 05:20 UTC

Wind 1 kt aus 200°

Sichtweite 10 km oder mehr

gering bewölkt in 7000 ft

aufgebrochene Bewölkung in 10000 ft

Temperatur 3.0°C

Taupunkt 2.0°C

Luftfeuchtigkeit 93%

Luftdruck 1022 hPa

ETSN 040520Z 20001KT 9999 FEW070 BKN100 03/02 Q1022 BLU BLU

Prognose für ETSN

vom 04.03. um 05:10 UTC

Zwischen 06:00 UTC und 15:00 UTC

Wind 3 kt aus 250°

Sichtweite 10 km oder mehr

keine signifikanten Wettererscheinungen

aufgebrochene Bewölkung in 10000 ft

aufgebrochene Bewölkung in 26000 ft

TAF ETSN 040510Z 0406/0415 25003KT 9999 NSW BKN100 BKN260 BY ETGL
Impressum